Time;durP1;ratioP1;P1;durP2;ratioP2;P2;SDS_P1;SDS_P2;PMS_P1;PMS_P2;Temp;Humidity;BMP_temperature;BMP_pressure;BME280_temperature;BME280_humidity;BME280_pressure;Samples;Min_cycle;Max_cycle;Signal;HPM_P1;HPM_P2
2023/03/19 00:01:46;;;;;;;22.23;12.68;;;;;;;6.07;59.71;100684.66;5076039;28;20036;-23
2023/03/19 00:04:12;;;;;;;22.50;12.10;;;;;;;5.70;60.31;100668.44;5078649;28;20027;-23
2023/03/19 00:06:37;;;;;;;19.77;12.13;;;;;;;6.00;60.03;100684.53;5075163;28;20108;-23
2023/03/19 00:09:03;;;;;;;21.10;11.98;;;;;;;6.11;59.50;100686.81;5077994;28;20103;-24
2023/03/19 00:11:28;;;;;;;20.10;11.45;;;;;;;5.98;60.08;100673.28;5077786;28;20031;-25
2023/03/19 00:13:54;;;;;;;23.80;13.10;;;;;;;5.98;59.36;100673.28;5075827;28;20107;-24
2023/03/19 00:16:20;;;;;;;19.73;13.75;;;;;;;6.08;59.69;100681.03;5078476;28;20032;-25
2023/03/19 00:18:46;;;;;;;21.58;12.48;;;;;;;5.92;58.59;100672.13;5075544;28;20047;-25
2023/03/19 00:21:12;;;;;;;21.60;12.85;;;;;;;5.70;60.23;100670.25;5077302;28;20016;-24
2023/03/19 00:23:37;;;;;;;22.25;12.98;;;;;;;5.58;60.25;100660.06;5088847;28;20686;-24
2023/03/19 00:26:03;;;;;;;20.55;12.45;;;;;;;5.61;59.78;100672.94;5087772;28;20449;-24
2023/03/19 00:28:29;;;;;;;20.95;11.70;;;;;;;5.45;59.54;100651.81;5087491;28;20039;-26
2023/03/19 00:30:55;;;;;;;19.70;11.35;;;;;;;5.40;59.82;100659.47;5069486;28;20097;-24
2023/03/19 00:33:21;;;;;;;20.00;11.70;;;;;;;5.50;60.02;100664.56;5087746;28;20024;-24
2023/03/19 00:35:47;;;;;;;23.73;13.10;;;;;;;5.51;60.18;100664.38;5069290;28;20395;-27
2023/03/19 00:38:12;;;;;;;26.05;12.88;;;;;;;5.42;59.88;100660.94;5087293;28;20408;-24
2023/03/19 00:40:38;;;;;;;25.05;14.63;;;;;;;5.50;60.38;100653.97;5069302;28;20044;-24
2023/03/19 00:43:03;;;;;;;19.65;11.50;;;;;;;5.43;60.04;100645.88;5087232;28;20399;-27
2023/03/19 00:45:29;;;;;;;19.98;11.18;;;;;;;5.32;60.54;100648.91;5087565;28;20028;-24
2023/03/19 00:47:56;;;;;;;18.95;10.88;;;;;;;5.48;60.63;100658.63;5069165;28;20473;-24
2023/03/19 00:50:24;;;;;;;19.58;11.60;;;;;;;5.59;59.18;100651.09;5087851;28;20507;-25
2023/03/19 00:52:50;;;;;;;18.50;10.33;;;;;;;5.85;58.83;100671.19;5087597;28;20093;-24
2023/03/19 00:55:15;;;;;;;18.40;10.05;;;;;;;5.82;59.28;100666.22;5069222;28;20028;-25
2023/03/19 00:57:40;;;;;;;20.48;10.35;;;;;;;5.76;58.18;100643.09;5087231;28;20032;-24
2023/03/19 01:00:07;;;;;;;20.23;10.70;;;;;;;5.86;58.56;100672.81;5087877;28;20035;-23
2023/03/19 01:02:33;;;;;;;16.17;9.40;;;;;;;5.85;57.60;100660.59;5069242;28;20047;-24
2023/03/19 01:04:58;;;;;;;20.70;11.20;;;;;;;5.78;58.73;100659.63;5087457;28;20407;-26
2023/03/19 01:07:23;;;;;;;18.98;9.25;;;;;;;5.88;58.28;100659.41;5087329;28;20063;-24
2023/03/19 01:09:49;;;;;;;18.17;9.80;;;;;;;5.79;58.85;100653.34;5087102;28;20111;-24
2023/03/19 01:12:15;;;;;;;19.20;9.82;;;;;;;5.82;58.07;100655.63;5087039;28;20023;-27
2023/03/19 01:14:40;;;;;;;17.38;9.27;;;;;;;5.76;58.20;100657.16;5092111;28;20147;-27
2023/03/19 01:17:06;;;;;;;18.38;10.25;;;;;;;5.76;58.36;100672.19;5107838;28;20574;-24
2023/03/19 01:19:31;;;;;;;17.38;8.60;;;;;;;5.44;58.03;100655.47;5089336;28;20027;-24
2023/03/19 01:21:57;;;;;;;17.45;9.48;;;;;;;5.42;58.60;100674.16;5108098;28;20030;-23
2023/03/19 01:24:23;;;;;;;14.60;8.48;;;;;;;5.39;59.17;100655.16;5090143;28;20048;-24
2023/03/19 01:26:48;;;;;;;15.88;8.48;;;;;;;5.64;58.18;100658.56;5089452;28;20058;-27
2023/03/19 01:29:13;;;;;;;14.52;8.82;;;;;;;5.72;57.92;100661.16;5091223;28;20051;-25
2023/03/19 01:31:39;;;;;;;15.88;8.90;;;;;;;5.55;58.38;100665.69;5090934;28;20043;-24
2023/03/19 01:34:05;;;;;;;16.85;8.90;;;;;;;5.24;58.58;100658.50;5091141;28;20024;-27
2023/03/19 01:36:31;;;;;;;16.20;8.50;;;;;;;5.46;59.11;100661.41;5091074;28;20407;-26
2023/03/19 01:38:56;;;;;;;17.65;9.32;;;;;;;5.34;57.94;100637.16;5090914;28;20035;-25
2023/03/19 01:41:22;;;;;;;16.50;8.70;;;;;;;5.45;59.34;100665.06;5090736;28;20019;-25
2023/03/19 01:43:48;;;;;;;16.20;9.40;;;;;;;5.53;58.34;100659.72;5090823;28;20035;-24
2023/03/19 01:46:27;;;;;;;12.68;7.70;;;;;;;5.55;58.29;100656.91;5091036;28;20035;-24
2023/03/19 01:48:58;;;;;;;15.75;7.90;;;;;;;5.46;58.55;100656.13;5090780;28;20051;-24
2023/03/19 01:51:33;;;;;;;16.58;8.95;;;;;;;5.47;58.07;100668.34;5090907;28;20032;-24
2023/03/19 01:54:04;;;;;;;14.10;7.93;;;;;;;5.29;58.67;100660.66;5090496;28;20388;-24
2023/03/19 01:56:33;;;;;;;13.15;7.20;;;;;;;5.14;58.72;100654.41;5090054;28;20031;-25
2023/03/19 01:59:10;;;;;;;22.30;8.45;;;;;;;5.38;58.35;100658.81;5089153;28;20039;-24
2023/03/19 02:01:42;;;;;;;13.50;7.45;;;;;;;5.31;57.75;100647.25;5090534;28;20055;-27
2023/03/19 02:04:08;;;;;;;12.45;7.18;;;;;;;5.31;58.09;100652.53;5089096;28;20043;-24
2023/03/19 02:06:35;;;;;;;13.90;7.32;;;;;;;5.17;58.73;100667.28;5088638;28;20024;-26
2023/03/19 02:09:02;;;;;;;13.68;7.00;;;;;;;5.39;59.08;100673.66;5090744;28;20036;-25
2023/03/19 02:11:28;;;;;;;13.85;8.00;;;;;;;5.57;58.52;100678.75;5089101;28;20024;-24
2023/03/19 02:13:53;;;;;;;11.38;6.60;;;;;;;5.71;57.63;100669.25;5090091;28;20028;-25
2023/03/19 02:16:19;;;;;;;14.13;6.80;;;;;;;5.86;55.98;100664.06;5077953;28;20119;-25
2023/03/19 02:18:45;;;;;;;13.82;7.10;;;;;;;5.97;56.25;100672.47;5069874;28;20127;-25
2023/03/19 02:21:14;;;;;;;13.50;7.50;;;;;;;6.08;56.46;100675.72;5069669;28;20082;-24
2023/03/19 02:23:54;;;;;;;13.00;7.55;;;;;;;6.06;56.22;100675.91;5067888;28;20055;-23
2023/03/19 02:26:25;;;;;;;19.77;8.13;;;;;;;5.93;56.38;100673.78;5069699;28;20107;-25
2023/03/19 02:28:52;;;;;;;14.00;8.25;;;;;;;5.99;56.44;100675.78;5068640;28;20150;-24
2023/03/19 02:31:19;;;;;;;11.82;7.13;;;;;;;5.89;56.19;100672.50;5068306;28;20111;-27
2023/03/19 02:34:02;;;;;;;15.30;7.40;;;;;;;5.59;56.89;100672.28;5068037;28;21205;-25
2023/03/19 02:36:41;;;;;;;13.93;7.13;;;;;;;5.46;57.96;100673.84;5069999;28;20032;-24
2023/03/19 02:39:20;;;;;;;11.93;7.35;;;;;;;5.51;57.76;100674.94;5068801;28;20032;-24
2023/03/19 02:41:47;;;;;;;12.82;6.68;;;;;;;5.46;57.76;100666.72;5069691;28;20028;-25
2023/03/19 02:44:12;;;;;;;13.27;7.47;;;;;;;5.67;56.84;100678.53;5068850;28;20025;-26
2023/03/19 02:46:38;;;;;;;12.43;6.57;;;;;;;5.56;57.42;100688.50;5070134;28;20162;-23
2023/03/19 02:49:04;;;;;;;10.07;6.00;;;;;;;5.32;57.87;100681.47;5070037;28;20028;-26
2023/03/19 02:51:29;;;;;;;10.75;6.38;;;;;;;5.26;57.08;100681.31;5068589;28;20385;-26
2023/03/19 02:53:55;;;;;;;11.88;6.57;;;;;;;5.21;58.84;100690.59;5069762;28;20040;-23
2023/03/19 02:56:21;;;;;;;11.23;6.85;;;;;;;5.23;58.38;100688.59;5069607;28;20038;-26
2023/03/19 02:58:46;;;;;;;11.93;6.72;;;;;;;5.27;57.40;100675.03;5068773;28;20438;-28
2023/03/19 03:01:12;;;;;;;10.70;6.28;;;;;;;5.15;58.60;100680.69;5070288;28;20029;-27
2023/03/19 03:03:38;;;;;;;12.75;6.75;;;;;;;5.11;58.03;100689.94;5070071;28;20108;-25
2023/03/19 03:06:03;;;;;;;9.85;6.10;;;;;;;5.15;58.43;100696.53;5068456;28;20493;-23
2023/03/19 03:08:29;;;;;;;12.65;6.38;;;;;;;5.08;59.15;100690.25;5069548;28;20020;-23
2023/03/19 03:10:54;;;;;;;14.05;6.50;;;;;;;5.05;58.75;100695.91;5069762;28;20029;-28
2023/03/19 03:13:20;;;;;;;12.38;6.53;;;;;;;5.26;59.12;100703.28;5069699;28;20558;-24
2023/03/19 03:15:45;;;;;;;11.70;6.55;;;;;;;5.12;58.59;100691.56;5069408;28;20020;-26
2023/03/19 03:18:10;;;;;;;11.32;6.82;;;;;;;5.01;60.05;100710.44;5083667;28;20028;-24
2023/03/19 03:20:36;;;;;;;14.20;8.00;;;;;;;4.86;60.30;100697.06;5089016;28;20150;-24
2023/03/19 03:23:02;;;;;;;11.77;6.50;;;;;;;4.82;59.76;100709.78;5097424;28;20054;-25
2023/03/19 03:25:27;;;;;;;12.15;6.70;;;;;;;4.53;59.86;100685.66;5090742;28;20027;-27
2023/03/19 03:27:52;;;;;;;10.50;6.15;;;;;;;4.63;59.90;100712.75;5108912;28;20476;-29
2023/03/19 03:30:19;;;;;;;11.05;6.35;;;;;;;4.63;60.05;100708.28;5109095;28;20024;-25
2023/03/19 03:32:44;;;;;;;10.50;5.80;;;;;;;4.67;59.96;100714.06;5109166;28;20024;-27
2023/03/19 03:35:10;;;;;;;12.43;6.43;;;;;;;4.72;59.24;100711.78;5109100;28;20027;-24
2023/03/19 03:37:36;;;;;;;9.82;6.10;;;;;;;4.78;58.27;100719.03;5108987;28;20024;-30
2023/03/19 03:40:07;;;;;;;11.25;5.95;;;;;;;4.80;58.49;100714.41;5090486;28;20024;-24
2023/03/19 03:42:33;;;;;;;11.93;6.40;;;;;;;4.95;58.54;100727.78;5090780;28;20035;-29
2023/03/19 03:44:59;;;;;;;11.52;5.95;;;;;;;5.10;57.44;100725.28;5090174;28;20015;-26
2023/03/19 03:47:24;;;;;;;10.65;5.68;;;;;;;5.06;58.62;100721.31;5108822;28;20459;-25
2023/03/19 03:49:49;;;;;;;11.25;5.40;;;;;;;5.14;56.58;100712.56;5108633;28;20051;-25
2023/03/19 03:52:15;;;;;;;12.60;6.18;;;;;;;5.00;57.35;100708.78;5108797;28;20034;-24
2023/03/19 03:54:40;;;;;;;10.70;5.47;;;;;;;5.29;57.85;100740.00;5108591;28;20034;-27
2023/03/19 03:57:06;;;;;;;10.45;5.93;;;;;;;5.37;56.01;100729.41;5108435;28;20036;-25
2023/03/19 03:59:32;;;;;;;11.88;6.60;;;;;;;5.26;57.19;100731.56;5108694;28;20042;-24
2023/03/19 04:01:58;;;;;;;9.73;5.90;;;;;;;5.14;56.77;100721.31;5108293;28;20732;-24
2023/03/19 04:04:23;;;;;;;10.50;6.22;;;;;;;5.23;56.84;100736.19;5108746;28;20031;-28
2023/03/19 04:06:48;;;;;;;13.27;6.35;;;;;;;5.30;57.29;100724.94;5108474;28;20035;-25
2023/03/19 04:09:15;;;;;;;13.40;6.65;;;;;;;5.21;57.30;100730.25;5108246;28;20080;-26
2023/03/19 04:11:41;;;;;;;11.70;7.22;;;;;;;4.99;58.38;100707.97;5108277;28;20031;-24
2023/03/19 04:14:07;;;;;;;11.98;6.60;;;;;;;4.93;58.13;100708.63;5108799;28;20092;-24
2023/03/19 04:16:33;;;;;;;10.32;6.32;;;;;;;5.02;57.43;100704.16;5106784;28;20038;-25
2023/03/19 04:18:58;;;;;;;11.43;6.60;;;;;;;5.07;57.49;100723.00;5088002;28;20032;-24
2023/03/19 04:21:25;;;;;;;11.65;6.20;;;;;;;5.16;57.68;100729.91;5088397;28;20070;-23
2023/03/19 04:23:50;;;;;;;13.50;6.50;;;;;;;5.07;57.50;100733.56;5088022;28;20613;-29
2023/03/19 04:26:15;;;;;;;12.63;6.65;;;;;;;5.11;57.60;100728.75;5087792;28;20036;-24
2023/03/19 04:28:41;;;;;;;13.60;6.38;;;;;;;4.95;58.28;100726.97;5069545;28;20115;-25
2023/03/19 04:31:08;;;;;;;12.40;6.72;;;;;;;5.01;58.65;100731.59;5087851;28;20023;-24
2023/03/19 04:33:34;;;;;;;13.18;6.80;;;;;;;4.95;57.95;100726.97;5087705;28;20031;-29
2023/03/19 04:36:00;;;;;;;12.93;6.47;;;;;;;5.09;57.16;100746.59;5069031;28;20122;-25
2023/03/19 04:38:26;;;;;;;12.60;6.78;;;;;;;5.05;57.79;100748.78;5087565;28;20102;-25
2023/03/19 04:40:52;;;;;;;13.05;6.70;;;;;;;5.03;58.71;100750.75;5069388;28;20032;-24
2023/03/19 04:43:17;;;;;;;12.25;6.18;;;;;;;5.24;58.33;100745.75;5087623;28;20028;-27
2023/03/19 04:45:43;;;;;;;12.15;5.97;;;;;;;5.09;58.71;100730.75;5086911;28;20197;-24
2023/03/19 04:48:09;;;;;;;60.75;28.30;;;;;;;5.33;57.66;100745.75;5087334;28;20047;-26
2023/03/19 04:50:34;;;;;;;33.97;29.15;;;;;;;5.44;57.53;100748.06;5087516;28;20031;-26
2023/03/19 04:53:00;;;;;;;81.85;59.45;;;;;;;5.40;57.69;100746.75;5087367;28;20020;-24
2023/03/19 04:55:26;;;;;;;21.73;15.02;;;;;;;5.42;57.95;100737.63;5069269;28;20608;-24
2023/03/19 04:57:52;;;;;;;12.18;7.10;;;;;;;5.47;57.69;100731.84;5086335;28;20553;-26
2023/03/19 05:00:17;;;;;;;13.07;7.47;;;;;;;5.52;58.32;100748.03;5087468;28;20020;-29
2023/03/19 05:02:43;;;;;;;12.45;7.70;;;;;;;5.38;58.76;100743.44;5087152;28;20032;-25
2023/03/19 05:05:12;;;;;;;13.38;6.88;;;;;;;5.43;58.98;100746.41;5087485;28;20149;-26
2023/03/19 05:07:38;;;;;;;15.13;7.55;;;;;;;5.57;58.61;100764.22;5068515;28;20119;-25
2023/03/19 05:10:04;;;;;;;13.90;8.50;;;;;;;5.54;58.28;100743.41;5069040;28;20039;-26
2023/03/19 05:12:29;;;;;;;11.82;6.22;;;;;;;5.43;57.69;100763.13;5086891;28;20036;-30
2023/03/19 05:14:55;;;;;;;13.05;6.47;;;;;;;5.44;56.90;100774.50;5072966;28;20032;-23
2023/03/19 05:17:20;;;;;;;17.23;10.93;;;;;;;5.37;57.93;100750.56;5102847;28;20028;-27
2023/03/19 05:19:46;;;;;;;12.50;6.47;;;;;;;5.46;56.85;100772.53;5087050;28;20031;-24
2023/03/19 05:22:11;;;;;;;12.85;7.05;;;;;;;5.52;57.55;100758.63;5086701;28;20841;-29
2023/03/19 05:24:37;;;;;;;10.95;6.35;;;;;;;5.49;57.72;100769.53;5069004;28;20480;-24
2023/03/19 05:27:02;;;;;;;12.15;6.70;;;;;;;5.54;57.83;100764.56;5087181;28;20036;-26
2023/03/19 05:29:28;;;;;;;10.00;6.18;;;;;;;5.27;58.02;100746.41;5087161;28;20020;-24
2023/03/19 05:31:53;;;;;;;11.82;6.30;;;;;;;5.71;57.69;100769.84;5086758;28;20028;-27
2023/03/19 05:34:19;;;;;;;11.00;6.53;;;;;;;5.77;58.56;100763.84;5086854;28;20069;-24
2023/03/19 05:36:45;;;;;;;10.77;6.43;;;;;;;6.04;56.79;100766.09;5068772;28;20036;-28
2023/03/19 05:39:10;;;;;;;13.25;5.88;;;;;;;6.24;56.81;100776.28;5087157;28;20024;-28
2023/03/19 05:41:36;;;;;;;10.93;6.15;;;;;;;6.19;56.98;100754.78;5087027;28;20058;-24
2023/03/19 05:44:02;;;;;;;10.38;5.82;;;;;;;6.26;56.62;100768.97;5087095;28;20577;-26
2023/03/19 05:46:27;;;;;;;11.68;6.25;;;;;;;6.42;56.20;100779.50;5068756;28;20024;-24
2023/03/19 05:48:53;;;;;;;9.55;5.65;;;;;;;6.57;55.25;100770.81;5086787;28;20472;-25
2023/03/19 05:51:18;;;;;;;9.82;5.75;;;;;;;6.49;56.16;100774.31;5086694;28;20484;-24
2023/03/19 05:53:44;;;;;;;11.07;5.50;;;;;;;6.51;55.74;100771.50;5086865;28;20028;-25
2023/03/19 05:56:10;;;;;;;8.20;5.10;;;;;;;6.80;54.25;100778.75;5068903;28;20024;-25
2023/03/19 05:58:36;;;;;;;11.55;5.57;;;;;;;6.59;53.73;100774.09;5068454;28;20016;-25
2023/03/19 06:01:01;;;;;;;9.55;5.05;;;;;;;6.64;54.29;100787.66;5086593;28;20028;-27
2023/03/19 06:03:27;;;;;;;9.32;6.43;;;;;;;6.64;53.16;100771.75;5086773;28;20031;-24
2023/03/19 06:05:52;;;;;;;11.45;6.15;;;;;;;6.65;53.89;100784.00;5086348;28;20089;-29
2023/03/19 06:08:18;;;;;;;8.93;5.38;;;;;;;6.70;54.56;100767.56;5087768;28;20085;-24
2023/03/19 06:10:44;;;;;;;7.93;4.75;;;;;;;6.75;54.00;100760.75;5072548;28;20492;-24
2023/03/19 06:13:10;;;;;;;10.40;6.35;;;;;;;6.75;55.02;100774.00;5090107;28;20059;-24
2023/03/19 06:15:35;;;;;;;11.05;4.78;;;;;;;6.80;54.01;100755.75;5090440;28;20067;-26
2023/03/19 06:18:01;;;;;;;7.65;4.65;;;;;;;6.95;52.77;100774.34;5097364;28;20055;-27
2023/03/19 06:20:26;;;;;;;9.48;4.65;;;;;;;6.78;51.99;100768.34;5110483;28;20036;-23
2023/03/19 06:22:52;;;;;;;105.78;17.98;;;;;;;6.87;53.05;100753.19;5110137;28;20058;-27
2023/03/19 06:25:17;;;;;;;12.27;5.07;;;;;;;7.19;53.14;100773.34;5110580;28;20035;-26
2023/03/19 06:27:43;;;;;;;12.07;5.75;;;;;;;7.29;51.36;100785.50;5091751;28;20031;-24
2023/03/19 06:30:09;;;;;;;15.25;5.88;;;;;;;7.53;51.08;100771.19;5082541;28;20024;-22
2023/03/19 06:32:35;;;;;;;13.60;6.63;;;;;;;7.88;49.95;100782.91;5093404;28;20027;-26
2023/03/19 06:35:01;;;;;;;10.52;5.47;;;;;;;7.96;49.75;100766.06;5099515;28;20027;-27
2023/03/19 06:37:26;;;;;;;9.30;5.40;;;;;;;8.07;49.10;100772.72;5080370;28;20513;-26
2023/03/19 06:39:53;;;;;;;8.27;4.60;;;;;;;8.04;49.30;100784.56;5100204;28;20055;-24
2023/03/19 06:42:20;;;;;;;12.07;6.05;;;;;;;7.75;49.95;100761.50;5099149;28;20032;-24
2023/03/19 06:44:46;;;;;;;10.50;6.07;;;;;;;8.04;49.52;100784.56;5080283;28;20093;-28
2023/03/19 06:47:11;;;;;;;9.65;5.68;;;;;;;7.89;48.84;100792.53;5099561;28;20023;-24
2023/03/19 06:49:37;;;;;;;12.63;7.03;;;;;;;8.02;49.48;100779.44;5099543;28;20024;-25
2023/03/19 06:52:02;;;;;;;11.30;5.50;;;;;;;8.41;49.00;100785.44;5097912;28;20143;-28
2023/03/19 06:54:28;;;;;;;9.50;5.22;;;;;;;8.34;49.04;100774.72;5100830;28;20038;-24
2023/03/19 06:56:53;;;;;;;11.85;6.35;;;;;;;8.47;48.63;100794.53;5099216;28;20119;-26
2023/03/19 06:59:19;;;;;;;13.20;7.53;;;;;;;8.52;48.66;100770.84;5098317;28;20020;-25
2023/03/19 07:01:45;;;;;;;12.63;6.00;;;;;;;8.94;48.50;100779.88;5099999;28;20023;-31
2023/03/19 07:04:11;;;;;;;10.65;5.95;;;;;;;9.10;47.92;100782.25;5080412;28;20487;-24
2023/03/19 07:06:36;;;;;;;11.13;5.53;;;;;;;9.09;46.54;100793.91;5098021;28;20026;-29
2023/03/19 07:09:03;;;;;;;9.93;5.60;;;;;;;9.11;47.70;100778.56;5100278;28;20020;-24
2023/03/19 07:11:28;;;;;;;11.30;6.22;;;;;;;9.52;47.75;100799.19;5098406;28;20046;-31
2023/03/19 07:13:54;;;;;;;10.57;6.03;;;;;;;9.62;46.92;100798.84;5098522;28;20458;-27
2023/03/19 07:16:19;;;;;;;18.92;6.57;;;;;;;9.82;46.18;100793.63;5097238;28;20498;-24
2023/03/19 07:18:45;;;;;;;13.13;6.68;;;;;;;9.95;45.96;100809.72;5084300;28;20034;-25
2023/03/19 07:21:10;;;;;;;9.55;5.80;;;;;;;9.92;45.85;100791.44;5108125;28;20041;-24
2023/03/19 07:23:36;;;;;;;12.25;5.55;;;;;;;10.06;45.11;100798.50;5109107;28;20051;-24
2023/03/19 07:26:02;;;;;;;7.75;4.85;;;;;;;9.88;45.03;100798.19;5109393;28;20399;-25
2023/03/19 07:28:28;;;;;;;8.07;4.93;;;;;;;9.97;44.12;100797.03;5091032;28;20028;-27
2023/03/19 07:30:53;;;;;;;8.80;4.30;;;;;;;10.04;43.50;100787.19;5090722;28;20027;-26
2023/03/19 07:33:20;;;;;;;8.43;4.72;;;;;;;10.34;43.64;100786.97;5092288;28;20435;-25
2023/03/19 07:35:46;;;;;;;8.35;4.05;;;;;;;10.30;42.71;100780.38;5079021;28;20027;-23
2023/03/19 07:38:11;;;;;;;11.27;3.72;;;;;;;10.56;43.54;100773.47;5109619;28;20032;-24
2023/03/19 07:40:37;;;;;;;9.98;4.32;;;;;;;10.88;42.79;100784.44;5109603;28;20479;-23
2023/03/19 07:43:02;;;;;;;7.07;4.05;;;;;;;10.58;41.55;100782.09;5109607;28;20032;-23
2023/03/19 07:45:28;;;;;;;8.70;4.05;;;;;;;10.91;41.31;100781.34;5109400;28;20028;-24
2023/03/19 07:47:54;;;;;;;7.93;4.10;;;;;;;10.69;41.28;100783.38;5090904;28;20103;-26
2023/03/19 07:50:19;;;;;;;7.20;4.05;;;;;;;10.68;41.47;100766.53;5101915;28;20111;-25
2023/03/19 07:52:46;;;;;;;12.65;4.82;;;;;;;10.83;41.90;100780.53;5089117;28;20125;-24
2023/03/19 07:55:12;;;;;;;6.68;3.92;;;;;;;11.25;41.78;100778.47;5089122;28;20551;-25
2023/03/19 07:57:38;;;;;;;10.65;4.55;;;;;;;11.21;42.00;100768.44;5070546;28;20119;-24
2023/03/19 08:00:04;;;;;;;10.05;4.93;;;;;;;11.17;42.33;100757.34;5089189;28;20039;-24
2023/03/19 08:02:30;;;;;;;14.68;7.57;;;;;;;11.14;41.89;100744.41;5070512;28;20028;-27
2023/03/19 08:04:55;;;;;;;24.35;9.73;;;;;;;11.66;41.95;100766.72;5088881;28;20385;-24
2023/03/19 08:07:21;;;;;;;12.02;6.72;;;;;;;11.47;40.37;100751.56;5088447;28;20035;-27
2023/03/19 08:09:47;;;;;;;25.05;9.50;;;;;;;11.77;42.82;100743.06;5088496;28;20399;-25
2023/03/19 08:12:12;;;;;;;8.90;5.13;;;;;;;12.11;40.39;100760.66;5070045;28;20066;-29
2023/03/19 08:14:38;;;;;;;8.93;3.83;;;;;;;12.31;38.82;100765.13;5106156;28;20030;-25
2023/03/19 08:17:04;;;;;;;10.73;4.43;;;;;;;12.22;40.76;100761.88;5108344;28;20035;-28
2023/03/19 08:19:30;;;;;;;11.00;5.18;;;;;;;12.33;39.57;100741.66;5084845;28;20035;-26
2023/03/19 08:21:56;;;;;;;6.28;3.40;;;;;;;12.38;38.83;100749.84;5087655;28;20071;-25
2023/03/19 08:24:21;;;;;;;8.70;3.83;;;;;;;12.22;40.30;100753.84;5087951;28;20083;-27
2023/03/19 08:26:47;;;;;;;11.38;3.83;;;;;;;12.45;38.04;100756.00;5087924;28;20051;-24
2023/03/19 08:29:13;;;;;;;7.05;3.85;;;;;;;12.79;38.47;100748.56;5087671;28;20032;-25
2023/03/19 08:31:38;;;;;;;6.70;3.25;;;;;;;13.09;38.30;100756.78;5087282;28;20016;-25
2023/03/19 08:34:03;;;;;;;7.57;3.60;;;;;;;13.14;38.21;100759.66;5087529;28;20035;-26
2023/03/19 08:36:30;;;;;;;6.32;3.25;;;;;;;13.23;37.18;100746.78;5087577;28;20024;-26
2023/03/19 08:38:57;;;;;;;5.72;3.53;;;;;;;13.23;36.38;100750.28;5069252;28;20035;-27
2023/03/19 08:41:23;;;;;;;6.57;3.30;;;;;;;13.43;36.82;100752.00;5069183;28;20024;-25
2023/03/19 08:43:49;;;;;;;7.90;3.90;;;;;;;13.57;37.75;100758.88;5068928;28;20407;-30
2023/03/19 08:46:15;;;;;;;7.28;4.00;;;;;;;13.73;36.26;100741.41;5087432;28;20476;-25
2023/03/19 08:48:41;;;;;;;8.05;3.95;;;;;;;13.52;36.98;100729.22;5068915;28;20205;-30
2023/03/19 08:51:06;;;;;;;6.05;3.03;;;;;;;13.71;36.76;100730.06;5087959;28;20559;-26
2023/03/19 08:53:32;;;;;;;7.05;3.63;;;;;;;13.96;36.68;100732.66;5087400;28;20031;-25
2023/03/19 08:56:00;;;;;;;7.80;4.47;;;;;;;14.42;34.98;100744.66;5069120;28;20572;-28
2023/03/19 08:58:27;;;;;;;14.80;6.80;;;;;;;14.47;35.67;100730.56;5069108;28;20028;-25
2023/03/19 09:00:53;;;;;;;8.40;4.18;;;;;;;14.55;34.10;100732.13;5069084;28;20117;-28
2023/03/19 09:03:20;;;;;;;9.25;4.15;;;;;;;14.95;34.81;100729.66;5087445;28;20116;-24
2023/03/19 09:05:46;;;;;;;14.85;8.27;;;;;;;15.06;34.41;100733.41;5087303;28;20180;-27
2023/03/19 09:08:11;;;;;;;7.25;3.83;;;;;;;15.06;34.56;100714.63;5069134;28;20480;-29
2023/03/19 09:10:38;;;;;;;10.80;5.03;;;;;;;15.24;34.31;100719.03;5087237;28;20509;-25
2023/03/19 09:13:03;;;;;;;7.30;3.70;;;;;;;15.21;34.29;100706.09;5068896;28;20036;-28
2023/03/19 09:15:29;;;;;;;7.22;3.97;;;;;;;15.17;34.10;100694.97;5087149;28;20134;-27
2023/03/19 09:17:55;;;;;;;5.15;2.58;;;;;;;14.86;35.20;100715.75;5086695;28;20039;-25
2023/03/19 09:20:20;;;;;;;6.18;3.30;;;;;;;15.04;34.17;100711.34;5093762;28;20035;-27
2023/03/19 09:22:46;;;;;;;21.17;16.25;;;;;;;15.67;34.92;100702.53;5107540;28;20035;-25
2023/03/19 09:25:11;;;;;;;12.20;5.10;;;;;;;15.68;33.93;100696.09;5107306;28;20028;-27
2023/03/19 09:27:37;;;;;;;4.03;2.17;;;;;;;16.43;34.51;100709.69;5107051;28;20027;-25
2023/03/19 09:30:03;;;;;;;6.88;3.08;;;;;;;16.21;34.14;100707.66;5107169;28;20031;-28
2023/03/19 09:32:29;;;;;;;3.72;2.38;;;;;;;16.37;33.63;100698.00;5088982;28;20035;-25
2023/03/19 09:34:55;;;;;;;5.10;2.50;;;;;;;16.37;33.39;100699.88;5089674;28;20632;-25
2023/03/19 09:37:21;;;;;;;10.40;6.60;;;;;;;16.55;33.40;100693.44;5107610;28;20411;-25
2023/03/19 09:39:46;;;;;;;43.63;20.63;;;;;;;16.40;34.34;100694.81;5107214;28;20032;-26
2023/03/19 09:42:44;;;;;;;6.30;2.53;;;;;;;16.94;33.53;100698.94;5107301;28;20617;-28
2023/03/19 09:45:17;;;;;;;;;;;;;;;16.87;33.18;100688.34;5094206;28;20023;-25
2023/03/19 09:47:47;;;;;;;4.65;2.55;;;;;;;17.15;32.79;100681.22;5092704;28;20326;-27
2023/03/19 09:50:19;;;;;;;5.43;2.30;;;;;;;17.29;34.84;100677.13;5092876;28;20118;-25
2023/03/19 09:52:45;;;;;;;3.95;1.90;;;;;;;17.52;34.15;100684.16;5092529;28;20035;-26
2023/03/19 09:55:23;;;;;;;4.13;2.25;;;;;;;16.72;33.19;100680.00;5092565;28;20071;-26
2023/03/19 09:57:52;;;;;;;4.57;2.17;;;;;;;16.88;34.50;100657.66;5092679;28;20033;-25
2023/03/19 10:00:28;;;;;;;4.50;2.05;;;;;;;16.90;33.31;100676.25;5092585;28;20454;-28
2023/03/19 10:03:13;;;;;;;5.00;2.83;;;;;;;17.31;34.13;100666.09;5092759;28;20032;-25
2023/03/19 10:06:21;;;;;;;4.22;2.00;;;;;;;17.39;34.40;100668.38;5092043;28;20520;-26
2023/03/19 10:09:05;;;;;;;;;;;;;;;17.55;34.17;100653.19;5107228;28;20036;-25
2023/03/19 10:11:33;;;;;;;11.55;8.30;;;;;;;17.57;33.31;100661.81;5110795;28;19915;-27
2023/03/19 10:14:08;;;;;;;5.68;2.10;;;;;;;17.91;35.67;100640.94;5092095;28;20080;-25
2023/03/19 10:16:37;;;;;;;3.97;1.98;;;;;;;17.74;33.34;100649.09;5110808;28;20107;-26
2023/03/19 10:19:05;;;;;;;18.90;13.57;;;;;;;18.14;32.44;100647.94;5075842;28;20043;-32
2023/03/19 10:21:34;;;;;;;;;;;;;;;17.94;32.81;100636.94;5077700;28;20768;-24
2023/03/19 10:24:12;;;;;;;4.32;2.17;;;;;;;18.18;33.83;100634.75;5089509;28;20379;-28
2023/03/19 10:26:38;;;;;;;4.30;2.25;;;;;;;18.15;33.83;100617.19;5071812;28;20487;-26
2023/03/19 10:29:08;;;;;;;6.38;2.17;;;;;;;18.32;33.08;100614.34;5090553;28;20118;-27
2023/03/19 10:31:39;;;;;;;4.43;2.40;;;;;;;18.64;34.67;100618.94;5071859;28;20056;-27
2023/03/19 10:34:14;;;;;;;3.47;1.98;;;;;;;18.96;33.52;100612.69;5089985;28;20038;-28
2023/03/19 10:36:39;;;;;;;4.00;2.00;;;;;;;18.79;32.36;100602.03;5086303;28;20034;-27
2023/03/19 10:39:06;;;;;;;10.32;5.07;;;;;;;19.43;32.82;100609.13;5109009;28;20486;-26
2023/03/19 10:42:10;;;;;;;10.55;5.70;;;;;;;19.59;32.64;100602.69;5109175;28;20024;-25
2023/03/19 10:44:41;;;;;;;28.92;23.58;;;;;;;20.07;30.59;100597.97;5007013;28;20033;-25
2023/03/19 10:47:12;;;;;;;4.80;2.55;;;;;;;20.27;31.20;100580.94;5025558;28;20120;-29
2023/03/19 10:49:38;;;;;;;26.83;19.52;;;;;;;20.37;30.18;100587.41;5030887;28;20040;-25
2023/03/19 10:52:35;;;;;;;7.38;3.92;;;;;;;20.70;30.22;100593.38;5050919;27;1381093;-24
2023/03/19 10:55:21;;;;;;;6.43;3.30;;;;;;;20.82;29.38;100583.88;5080022;28;20039;-24
2023/03/19 10:57:50;;;;;;;6.30;3.13;;;;;;;19.92;30.79;100570.91;5077636;28;20082;-26
2023/03/19 11:00:18;;;;;;;7.32;3.50;;;;;;;20.22;30.89;100571.97;5070272;28;20085;-27
2023/03/19 11:02:50;;;;;;;7.20;3.38;;;;;;;19.88;30.50;100561.69;5076165;28;20534;-24
2023/03/19 11:05:21;;;;;;;11.95;5.85;;;;;;;19.62;31.67;100558.88;5070617;28;20105;-26
2023/03/19 11:07:56;;;;;;;3.60;1.80;;;;;;;19.53;31.33;100549.66;5073251;28;20020;-22
2023/03/19 12:58:55;;;;;;;3.25;1.60;;;;;;;23.63;25.71;100433.03;5613881;23;20408;-29
2023/03/19 13:01:34;;;;;;;3.80;2.00;;;;;;;24.15;25.16;100435.72;4981492;28;20038;-29
2023/03/19 13:04:08;;;;;;;9.15;2.28;;;;;;;24.51;25.25;100424.16;4986744;28;20121;-28
2023/03/19 13:06:37;;;;;;;4.20;1.80;;;;;;;24.45;24.76;100415.22;4986929;28;20587;-29
2023/03/19 13:09:37;;;;;;;4.18;1.90;;;;;;;24.33;24.72;100422.31;4988393;28;20489;-29
2023/03/19 13:12:09;;;;;;;3.83;1.75;;;;;;;24.71;24.21;100427.59;4970925;28;20030;-29
2023/03/19 13:14:54;;;;;;;3.60;1.88;;;;;;;24.45;24.37;100412.50;4987492;28;20038;-29